Terminal Aerodrome Forecast
Issued by NWS

Home | Current Version | Previous Version | Text Only | Print | Product List | Glossary On
Versions: 1 2 3 4 5 6 7 8 9 10 11 12 13 14 15
000
FTUS46 KHNX 020900 AAA
TAFVIS
TAF AMD
KVIS 020900Z 0209/0306 VRB04KT P6SM VCTS SCT050CB BKN130
      TEMPO 0209/0212 09010G19KT 6SM -TSRA BKN030CB
     FM030000 30007KT P6SM SCT100 BKN150=

USA.gov is the U.S. government's official web portal to all federal, state and local government web resources and services.